sensor_id;sensor_type;location;lat;lon;timestamp;P1;durP1;ratioP1;P2;durP2;ratioP2
6531;SDS011;3299;42.004;24.868;2022-09-29T00:01:22;1.25;;;1.15;;
6531;SDS011;3299;42.004;24.868;2022-09-29T00:03:48;2.00;;;1.10;;
6531;SDS011;3299;42.004;24.868;2022-09-29T00:06:14;1.98;;;1.23;;
6531;SDS011;3299;42.004;24.868;2022-09-29T00:08:42;2.85;;;1.13;;
6531;SDS011;3299;42.004;24.868;2022-09-29T00:11:12;2.33;;;1.40;;
6531;SDS011;3299;42.004;24.868;2022-09-29T00:13:40;2.25;;;1.10;;
6531;SDS011;3299;42.004;24.868;2022-09-29T00:16:05;2.03;;;1.33;;
6531;SDS011;3299;42.004;24.868;2022-09-29T00:18:32;2.95;;;1.23;;
6531;SDS011;3299;42.004;24.868;2022-09-29T00:20:59;1.77;;;1.33;;
6531;SDS011;3299;42.004;24.868;2022-09-29T00:23:30;1.17;;;0.95;;
6531;SDS011;3299;42.004;24.868;2022-09-29T00:26:00;2.25;;;1.70;;
6531;SDS011;3299;42.004;24.868;2022-09-29T00:28:34;2.15;;;1.27;;
6531;SDS011;3299;42.004;24.868;2022-09-29T00:31:02;1.35;;;1.25;;
6531;SDS011;3299;42.004;24.868;2022-09-29T00:33:29;2.08;;;1.48;;
6531;SDS011;3299;42.004;24.868;2022-09-29T00:35:59;2.80;;;1.40;;
6531;SDS011;3299;42.004;24.868;2022-09-29T00:38:27;2.35;;;1.17;;
6531;SDS011;3299;42.004;24.868;2022-09-29T00:40:53;1.30;;;1.20;;
6531;SDS011;3299;42.004;24.868;2022-09-29T00:43:24;1.60;;;1.30;;
6531;SDS011;3299;42.004;24.868;2022-09-29T00:46:10;4.90;;;1.30;;
6531;SDS011;3299;42.004;24.868;2022-09-29T00:48:38;1.88;;;1.27;;
6531;SDS011;3299;42.004;24.868;2022-09-29T00:51:04;3.03;;;1.35;;
6531;SDS011;3299;42.004;24.868;2022-09-29T00:53:30;1.27;;;1.17;;
6531;SDS011;3299;42.004;24.868;2022-09-29T00:56:03;5.57;;;1.48;;
6531;SDS011;3299;42.004;24.868;2022-09-29T01:01:08;1.50;;;1.40;;
6531;SDS011;3299;42.004;24.868;2022-09-29T01:03:36;1.20;;;1.10;;
6531;SDS011;3299;42.004;24.868;2022-09-29T01:06:07;2.20;;;1.50;;
6531;SDS011;3299;42.004;24.868;2022-09-29T01:08:40;1.27;;;1.20;;
6531;SDS011;3299;42.004;24.868;2022-09-29T01:11:10;1.17;;;1.00;;
6531;SDS011;3299;42.004;24.868;2022-09-29T01:13:37;2.17;;;1.38;;
6531;SDS011;3299;42.004;24.868;2022-09-29T01:16:05;2.90;;;1.60;;
6531;SDS011;3299;42.004;24.868;2022-09-29T01:18:31;2.72;;;1.33;;
6531;SDS011;3299;42.004;24.868;2022-09-29T01:21:16;1.52;;;1.17;;
6531;SDS011;3299;42.004;24.868;2022-09-29T01:24:07;4.15;;;1.20;;
6531;SDS011;3299;42.004;24.868;2022-09-29T01:40:10;2.45;;;1.40;;
6531;SDS011;3299;42.004;24.868;2022-09-29T01:43:00;2.03;;;1.40;;
6531;SDS011;3299;42.004;24.868;2022-09-29T01:45:32;2.05;;;1.55;;
6531;SDS011;3299;42.004;24.868;2022-09-29T01:48:03;4.75;;;1.38;;
6531;SDS011;3299;42.004;24.868;2022-09-29T01:50:40;2.72;;;1.70;;
6531;SDS011;3299;42.004;24.868;2022-09-29T01:53:11;1.50;;;1.40;;
6531;SDS011;3299;42.004;24.868;2022-09-29T01:55:42;2.60;;;1.30;;
6531;SDS011;3299;42.004;24.868;2022-09-29T01:58:14;2.97;;;2.13;;
6531;SDS011;3299;42.004;24.868;2022-09-29T02:00:48;1.40;;;1.30;;
6531;SDS011;3299;42.004;24.868;2022-09-29T02:03:30;1.30;;;1.30;;
6531;SDS011;3299;42.004;24.868;2022-09-29T02:06:02;2.25;;;1.50;;
6531;SDS011;3299;42.004;24.868;2022-09-29T02:11:10;2.35;;;1.67;;
6531;SDS011;3299;42.004;24.868;2022-09-29T02:16:15;1.50;;;1.40;;
6531;SDS011;3299;42.004;24.868;2022-09-29T02:18:47;2.13;;;1.90;;
6531;SDS011;3299;42.004;24.868;2022-09-29T02:21:20;2.00;;;1.50;;
6531;SDS011;3299;42.004;24.868;2022-09-29T02:23:48;3.50;;;1.60;;
6531;SDS011;3299;42.004;24.868;2022-09-29T02:26:14;2.65;;;2.45;;
6531;SDS011;3299;42.004;24.868;2022-09-29T02:28:41;4.75;;;2.22;;
6531;SDS011;3299;42.004;24.868;2022-09-29T02:31:08;4.35;;;2.33;;
6531;SDS011;3299;42.004;24.868;2022-09-29T02:33:33;2.95;;;2.47;;
6531;SDS011;3299;42.004;24.868;2022-09-29T02:36:16;4.00;;;2.90;;
6531;SDS011;3299;42.004;24.868;2022-09-29T02:55:48;1.70;;;1.60;;
6531;SDS011;3299;42.004;24.868;2022-09-29T02:58:17;2.50;;;1.65;;
6531;SDS011;3299;42.004;24.868;2022-09-29T03:00:51;1.58;;;1.48;;
6531;SDS011;3299;42.004;24.868;2022-09-29T03:03:18;1.90;;;1.67;;
6531;SDS011;3299;42.004;24.868;2022-09-29T03:05:43;2.80;;;1.60;;
6531;SDS011;3299;42.004;24.868;2022-09-29T03:08:09;1.92;;;1.83;;
6531;SDS011;3299;42.004;24.868;2022-09-29T03:10:34;2.30;;;1.73;;
6531;SDS011;3299;42.004;24.868;2022-09-29T03:12:59;2.67;;;1.83;;
6531;SDS011;3299;42.004;24.868;2022-09-29T03:15:25;2.22;;;2.10;;
6531;SDS011;3299;42.004;24.868;2022-09-29T03:17:53;4.13;;;1.95;;
6531;SDS011;3299;42.004;24.868;2022-09-29T03:20:20;2.63;;;1.75;;
6531;SDS011;3299;42.004;24.868;2022-09-29T03:22:46;2.80;;;2.10;;
6531;SDS011;3299;42.004;24.868;2022-09-29T03:25:11;2.00;;;1.90;;
6531;SDS011;3299;42.004;24.868;2022-09-29T03:27:38;3.17;;;2.20;;
6531;SDS011;3299;42.004;24.868;2022-09-29T03:30:04;2.17;;;2.05;;
6531;SDS011;3299;42.004;24.868;2022-09-29T03:32:29;1.90;;;1.80;;
6531;SDS011;3299;42.004;24.868;2022-09-29T03:34:55;4.13;;;2.45;;
6531;SDS011;3299;42.004;24.868;2022-09-29T03:37:20;2.85;;;1.92;;
6531;SDS011;3299;42.004;24.868;2022-09-29T03:39:46;2.50;;;1.67;;
6531;SDS011;3299;42.004;24.868;2022-09-29T03:42:11;1.80;;;1.70;;
6531;SDS011;3299;42.004;24.868;2022-09-29T03:44:36;2.80;;;1.83;;
6531;SDS011;3299;42.004;24.868;2022-09-29T03:47:02;2.50;;;2.10;;
6531;SDS011;3299;42.004;24.868;2022-09-29T03:49:27;2.13;;;2.03;;
6531;SDS011;3299;42.004;24.868;2022-09-29T03:51:53;2.47;;;2.05;;
6531;SDS011;3299;42.004;24.868;2022-09-29T03:54:18;4.80;;;2.10;;
6531;SDS011;3299;42.004;24.868;2022-09-29T03:56:44;2.35;;;2.20;;
6531;SDS011;3299;42.004;24.868;2022-09-29T03:59:09;2.53;;;1.98;;
6531;SDS011;3299;42.004;24.868;2022-09-29T04:01:36;2.17;;;2.08;;
6531;SDS011;3299;42.004;24.868;2022-09-29T04:04:02;2.40;;;1.90;;
6531;SDS011;3299;42.004;24.868;2022-09-29T04:06:28;1.95;;;1.85;;
6531;SDS011;3299;42.004;24.868;2022-09-29T04:08:54;4.53;;;2.38;;
6531;SDS011;3299;42.004;24.868;2022-09-29T04:11:19;4.13;;;2.53;;
6531;SDS011;3299;42.004;24.868;2022-09-29T04:13:44;2.20;;;2.00;;
6531;SDS011;3299;42.004;24.868;2022-09-29T04:16:10;3.53;;;2.38;;
6531;SDS011;3299;42.004;24.868;2022-09-29T04:18:35;5.13;;;2.33;;
6531;SDS011;3299;42.004;24.868;2022-09-29T04:21:05;2.65;;;2.40;;
6531;SDS011;3299;42.004;24.868;2022-09-29T04:23:31;2.53;;;2.33;;
6531;SDS011;3299;42.004;24.868;2022-09-29T04:25:57;6.30;;;2.40;;
6531;SDS011;3299;42.004;24.868;2022-09-29T04:28:23;5.85;;;2.78;;
6531;SDS011;3299;42.004;24.868;2022-09-29T04:30:49;3.17;;;2.70;;
6531;SDS011;3299;42.004;24.868;2022-09-29T04:33:15;3.40;;;2.70;;
6531;SDS011;3299;42.004;24.868;2022-09-29T04:35:40;3.92;;;2.25;;
6531;SDS011;3299;42.004;24.868;2022-09-29T04:38:06;2.95;;;2.58;;
6531;SDS011;3299;42.004;24.868;2022-09-29T04:40:33;2.67;;;2.47;;
6531;SDS011;3299;42.004;24.868;2022-09-29T04:42:59;2.35;;;2.25;;
6531;SDS011;3299;42.004;24.868;2022-09-29T04:45:24;3.45;;;2.47;;
6531;SDS011;3299;42.004;24.868;2022-09-29T04:47:50;2.80;;;2.50;;
6531;SDS011;3299;42.004;24.868;2022-09-29T04:50:15;4.28;;;2.92;;
6531;SDS011;3299;42.004;24.868;2022-09-29T04:52:41;3.10;;;2.90;;
6531;SDS011;3299;42.004;24.868;2022-09-29T04:55:08;2.95;;;2.63;;
6531;SDS011;3299;42.004;24.868;2022-09-29T04:57:35;4.10;;;2.58;;
6531;SDS011;3299;42.004;24.868;2022-09-29T05:00:02;4.70;;;2.90;;
6531;SDS011;3299;42.004;24.868;2022-09-29T05:02:28;7.10;;;3.25;;
6531;SDS011;3299;42.004;24.868;2022-09-29T05:04:54;4.45;;;2.92;;
6531;SDS011;3299;42.004;24.868;2022-09-29T05:07:19;3.90;;;2.92;;
6531;SDS011;3299;42.004;24.868;2022-09-29T05:09:45;3.20;;;2.78;;
6531;SDS011;3299;42.004;24.868;2022-09-29T05:12:10;4.88;;;3.35;;
6531;SDS011;3299;42.004;24.868;2022-09-29T05:14:36;2.90;;;2.70;;
6531;SDS011;3299;42.004;24.868;2022-09-29T05:17:01;3.05;;;2.85;;
6531;SDS011;3299;42.004;24.868;2022-09-29T05:19:26;3.08;;;2.67;;
6531;SDS011;3299;42.004;24.868;2022-09-29T05:21:52;5.78;;;2.97;;
6531;SDS011;3299;42.004;24.868;2022-09-29T05:24:17;2.63;;;2.22;;
6531;SDS011;3299;42.004;24.868;2022-09-29T05:26:43;2.40;;;2.30;;
6531;SDS011;3299;42.004;24.868;2022-09-29T05:29:08;3.83;;;2.58;;
6531;SDS011;3299;42.004;24.868;2022-09-29T05:31:34;5.15;;;3.45;;
6531;SDS011;3299;42.004;24.868;2022-09-29T05:33:59;22.40;;;4.88;;
6531;SDS011;3299;42.004;24.868;2022-09-29T05:36:25;4.80;;;4.20;;
6531;SDS011;3299;42.004;24.868;2022-09-29T05:38:50;6.40;;;3.65;;
6531;SDS011;3299;42.004;24.868;2022-09-29T05:41:16;6.32;;;3.92;;
6531;SDS011;3299;42.004;24.868;2022-09-29T05:43:46;4.13;;;3.65;;
6531;SDS011;3299;42.004;24.868;2022-09-29T05:46:12;7.05;;;4.18;;
6531;SDS011;3299;42.004;24.868;2022-09-29T05:48:39;8.38;;;3.47;;
6531;SDS011;3299;42.004;24.868;2022-09-29T05:51:06;5.57;;;3.80;;
6531;SDS011;3299;42.004;24.868;2022-09-29T05:53:34;3.75;;;3.40;;
6531;SDS011;3299;42.004;24.868;2022-09-29T05:56:03;3.50;;;3.22;;
6531;SDS011;3299;42.004;24.868;2022-09-29T05:58:30;3.83;;;3.53;;
6531;SDS011;3299;42.004;24.868;2022-09-29T06:00:55;6.43;;;3.35;;
6531;SDS011;3299;42.004;24.868;2022-09-29T06:03:20;5.05;;;3.05;;
6531;SDS011;3299;42.004;24.868;2022-09-29T06:05:46;5.15;;;2.78;;
6531;SDS011;3299;42.004;24.868;2022-09-29T06:08:11;4.72;;;3.10;;
6531;SDS011;3299;42.004;24.868;2022-09-29T06:10:37;3.72;;;3.08;;
6531;SDS011;3299;42.004;24.868;2022-09-29T06:13:02;5.72;;;3.00;;
6531;SDS011;3299;42.004;24.868;2022-09-29T06:15:28;2.67;;;2.47;;
6531;SDS011;3299;42.004;24.868;2022-09-29T06:17:54;3.17;;;2.92;;
6531;SDS011;3299;42.004;24.868;2022-09-29T06:20:22;7.03;;;3.28;;
6531;SDS011;3299;42.004;24.868;2022-09-29T06:22:48;3.53;;;2.72;;
6531;SDS011;3299;42.004;24.868;2022-09-29T06:25:15;4.82;;;3.30;;
6531;SDS011;3299;42.004;24.868;2022-09-29T06:27:40;3.53;;;2.40;;
6531;SDS011;3299;42.004;24.868;2022-09-29T06:30:06;2.95;;;2.50;;
6531;SDS011;3299;42.004;24.868;2022-09-29T06:32:32;2.50;;;2.35;;
6531;SDS011;3299;42.004;24.868;2022-09-29T06:34:58;3.53;;;2.67;;
6531;SDS011;3299;42.004;24.868;2022-09-29T06:37:42;2.60;;;2.40;;
6531;SDS011;3299;42.004;24.868;2022-09-29T06:40:10;2.58;;;2.40;;
6531;SDS011;3299;42.004;24.868;2022-09-29T06:42:36;4.18;;;2.40;;
6531;SDS011;3299;42.004;24.868;2022-09-29T06:45:02;4.15;;;2.72;;
6531;SDS011;3299;42.004;24.868;2022-09-29T06:47:28;2.55;;;2.35;;
6531;SDS011;3299;42.004;24.868;2022-09-29T06:49:54;2.83;;;2.25;;
6531;SDS011;3299;42.004;24.868;2022-09-29T06:52:19;4.18;;;2.60;;
6531;SDS011;3299;42.004;24.868;2022-09-29T06:54:45;3.72;;;2.63;;
6531;SDS011;3299;42.004;24.868;2022-09-29T06:57:11;4.60;;;2.50;;
6531;SDS011;3299;42.004;24.868;2022-09-29T06:59:37;4.32;;;2.40;;
6531;SDS011;3299;42.004;24.868;2022-09-29T07:02:03;3.72;;;3.42;;
6531;SDS011;3299;42.004;24.868;2022-09-29T07:04:28;2.60;;;2.40;;
6531;SDS011;3299;42.004;24.868;2022-09-29T07:06:54;3.00;;;2.42;;
6531;SDS011;3299;42.004;24.868;2022-09-29T07:09:19;8.95;;;3.60;;
6531;SDS011;3299;42.004;24.868;2022-09-29T07:11:46;4.95;;;3.60;;
6531;SDS011;3299;42.004;24.868;2022-09-29T07:14:14;8.45;;;3.65;;
6531;SDS011;3299;42.004;24.868;2022-09-29T07:16:40;4.10;;;3.40;;
6531;SDS011;3299;42.004;24.868;2022-09-29T07:19:06;6.18;;;3.78;;
6531;SDS011;3299;42.004;24.868;2022-09-29T07:21:31;5.07;;;3.50;;
6531;SDS011;3299;42.004;24.868;2022-09-29T07:23:57;7.18;;;3.50;;
6531;SDS011;3299;42.004;24.868;2022-09-29T07:26:22;5.43;;;3.40;;
6531;SDS011;3299;42.004;24.868;2022-09-29T07:28:48;29.33;;;5.15;;
6531;SDS011;3299;42.004;24.868;2022-09-29T07:31:14;9.35;;;3.83;;
6531;SDS011;3299;42.004;24.868;2022-09-29T07:33:45;4.22;;;3.20;;
6531;SDS011;3299;42.004;24.868;2022-09-29T07:36:12;8.25;;;3.30;;
6531;SDS011;3299;42.004;24.868;2022-09-29T07:38:39;6.28;;;3.20;;
6531;SDS011;3299;42.004;24.868;2022-09-29T07:41:06;5.93;;;3.58;;
6531;SDS011;3299;42.004;24.868;2022-09-29T07:43:33;4.55;;;2.85;;
6531;SDS011;3299;42.004;24.868;2022-09-29T07:45:59;4.50;;;3.42;;
6531;SDS011;3299;42.004;24.868;2022-09-29T07:48:25;8.65;;;3.35;;
6531;SDS011;3299;42.004;24.868;2022-09-29T07:50:51;8.68;;;3.25;;
6531;SDS011;3299;42.004;24.868;2022-09-29T07:53:17;8.90;;;3.80;;
6531;SDS011;3299;42.004;24.868;2022-09-29T07:55:43;4.82;;;3.05;;
6531;SDS011;3299;42.004;24.868;2022-09-29T07:58:08;4.55;;;3.35;;
6531;SDS011;3299;42.004;24.868;2022-09-29T08:00:34;7.75;;;3.15;;
6531;SDS011;3299;42.004;24.868;2022-09-29T08:03:00;7.63;;;3.67;;
6531;SDS011;3299;42.004;24.868;2022-09-29T08:05:27;6.05;;;3.20;;
6531;SDS011;3299;42.004;24.868;2022-09-29T08:07:53;4.68;;;3.20;;
6531;SDS011;3299;42.004;24.868;2022-09-29T08:10:18;9.32;;;3.45;;
6531;SDS011;3299;42.004;24.868;2022-09-29T08:12:44;9.23;;;3.67;;
6531;SDS011;3299;42.004;24.868;2022-09-29T08:15:09;6.38;;;3.60;;
6531;SDS011;3299;42.004;24.868;2022-09-29T08:17:35;7.70;;;3.50;;
6531;SDS011;3299;42.004;24.868;2022-09-29T08:20:00;4.07;;;3.30;;
6531;SDS011;3299;42.004;24.868;2022-09-29T08:22:26;8.45;;;3.90;;
6531;SDS011;3299;42.004;24.868;2022-09-29T08:24:51;7.15;;;3.97;;
6531;SDS011;3299;42.004;24.868;2022-09-29T08:27:16;6.40;;;3.80;;
6531;SDS011;3299;42.004;24.868;2022-09-29T08:29:42;13.30;;;4.38;;
6531;SDS011;3299;42.004;24.868;2022-09-29T08:32:07;12.93;;;3.83;;
6531;SDS011;3299;42.004;24.868;2022-09-29T08:34:33;11.73;;;3.78;;
6531;SDS011;3299;42.004;24.868;2022-09-29T08:36:58;7.82;;;3.78;;
6531;SDS011;3299;42.004;24.868;2022-09-29T08:39:23;8.18;;;3.38;;
6531;SDS011;3299;42.004;24.868;2022-09-29T08:41:58;5.55;;;3.10;;
6531;SDS011;3299;42.004;24.868;2022-09-29T08:44:34;11.18;;;3.90;;
6531;SDS011;3299;42.004;24.868;2022-09-29T08:49:45;5.43;;;2.70;;
6531;SDS011;3299;42.004;24.868;2022-09-29T08:52:22;4.20;;;2.60;;
6531;SDS011;3299;42.004;24.868;2022-09-29T08:54:53;9.63;;;2.65;;
6531;SDS011;3299;42.004;24.868;2022-09-29T08:57:26;5.00;;;2.60;;
6531;SDS011;3299;42.004;24.868;2022-09-29T08:59:53;4.18;;;2.58;;
6531;SDS011;3299;42.004;24.868;2022-09-29T09:02:26;5.50;;;2.70;;
6531;SDS011;3299;42.004;24.868;2022-09-29T09:12:58;3.65;;;2.70;;
6531;SDS011;3299;42.004;24.868;2022-09-29T09:15:38;6.85;;;3.25;;
6531;SDS011;3299;42.004;24.868;2022-09-29T09:23:53;6.75;;;2.55;;
6531;SDS011;3299;42.004;24.868;2022-09-29T09:26:33;7.22;;;2.58;;
6531;SDS011;3299;42.004;24.868;2022-09-29T09:29:05;4.15;;;2.58;;
6531;SDS011;3299;42.004;24.868;2022-09-29T09:31:39;11.48;;;3.05;;
6531;SDS011;3299;42.004;24.868;2022-09-29T09:34:19;5.28;;;2.92;;
6531;SDS011;3299;42.004;24.868;2022-09-29T09:36:53;5.68;;;2.50;;
6531;SDS011;3299;42.004;24.868;2022-09-29T09:41:50;9.35;;;2.63;;
6531;SDS011;3299;42.004;24.868;2022-09-29T09:44:33;4.53;;;2.60;;
6531;SDS011;3299;42.004;24.868;2022-09-29T09:49:51;9.27;;;3.08;;
6531;SDS011;3299;42.004;24.868;2022-09-29T09:55:12;6.07;;;2.60;;
6531;SDS011;3299;42.004;24.868;2022-09-29T10:00:34;4.53;;;2.95;;
6531;SDS011;3299;42.004;24.868;2022-09-29T10:03:06;5.72;;;3.10;;
6531;SDS011;3299;42.004;24.868;2022-09-29T10:05:38;9.07;;;3.15;;
6531;SDS011;3299;42.004;24.868;2022-09-29T10:08:06;5.28;;;2.70;;
6531;SDS011;3299;42.004;24.868;2022-09-29T10:10:36;5.20;;;2.70;;
6531;SDS011;3299;42.004;24.868;2022-09-29T10:13:07;4.20;;;2.92;;
6531;SDS011;3299;42.004;24.868;2022-09-29T10:18:35;8.35;;;3.20;;
6531;SDS011;3299;42.004;24.868;2022-09-29T10:21:01;6.55;;;3.13;;
6531;SDS011;3299;42.004;24.868;2022-09-29T10:23:31;6.78;;;2.72;;
6531;SDS011;3299;42.004;24.868;2022-09-29T10:26:01;7.57;;;3.58;;
6531;SDS011;3299;42.004;24.868;2022-09-29T10:28:35;4.70;;;2.72;;
6531;SDS011;3299;42.004;24.868;2022-09-29T10:31:13;3.92;;;2.83;;
6531;SDS011;3299;42.004;24.868;2022-09-29T10:33:45;5.93;;;3.45;;
6531;SDS011;3299;42.004;24.868;2022-09-29T10:36:15;5.22;;;3.13;;
6531;SDS011;3299;42.004;24.868;2022-09-29T10:38:45;6.80;;;3.45;;
6531;SDS011;3299;42.004;24.868;2022-09-29T10:41:12;3.42;;;3.10;;
6531;SDS011;3299;42.004;24.868;2022-09-29T10:43:39;6.30;;;3.40;;
6531;SDS011;3299;42.004;24.868;2022-09-29T10:46:34;8.70;;;3.20;;
6531;SDS011;3299;42.004;24.868;2022-09-29T10:49:14;2.95;;;2.45;;
6531;SDS011;3299;42.004;24.868;2022-09-29T10:51:41;4.30;;;3.25;;
6531;SDS011;3299;42.004;24.868;2022-09-29T10:54:18;5.90;;;2.90;;
6531;SDS011;3299;42.004;24.868;2022-09-29T10:56:49;5.18;;;3.00;;
6531;SDS011;3299;42.004;24.868;2022-09-29T10:59:16;7.13;;;3.30;;
6531;SDS011;3299;42.004;24.868;2022-09-29T11:01:47;3.88;;;3.47;;
6531;SDS011;3299;42.004;24.868;2022-09-29T11:04:22;3.75;;;2.60;;
6531;SDS011;3299;42.004;24.868;2022-09-29T11:06:52;8.10;;;3.03;;
6531;SDS011;3299;42.004;24.868;2022-09-29T11:17:02;4.80;;;2.70;;
6531;SDS011;3299;42.004;24.868;2022-09-29T11:19:47;6.10;;;3.35;;
6531;SDS011;3299;42.004;24.868;2022-09-29T11:35:35;5.55;;;2.50;;
6531;SDS011;3299;42.004;24.868;2022-09-29T11:38:12;5.25;;;2.65;;
6531;SDS011;3299;42.004;24.868;2022-09-29T11:47:16;7.13;;;2.40;;
6531;SDS011;3299;42.004;24.868;2022-09-29T11:55:35;5.47;;;2.72;;
6531;SDS011;3299;42.004;24.868;2022-09-29T12:11:58;5.53;;;2.38;;
6531;SDS011;3299;42.004;24.868;2022-09-29T12:17:11;2.30;;;2.08;;
6531;SDS011;3299;42.004;24.868;2022-09-29T12:19:41;2.28;;;2.08;;
6531;SDS011;3299;42.004;24.868;2022-09-29T12:22:12;3.83;;;1.92;;
6531;SDS011;3299;42.004;24.868;2022-09-29T12:24:42;4.82;;;2.33;;
6531;SDS011;3299;42.004;24.868;2022-09-29T12:27:20;5.88;;;2.33;;
6531;SDS011;3299;42.004;24.868;2022-09-29T12:33:04;3.10;;;2.20;;
6531;SDS011;3299;42.004;24.868;2022-09-29T12:38:50;4.28;;;2.47;;
6531;SDS011;3299;42.004;24.868;2022-09-29T12:41:24;4.32;;;2.13;;
6531;SDS011;3299;42.004;24.868;2022-09-29T12:46:29;4.00;;;2.10;;
6531;SDS011;3299;42.004;24.868;2022-09-29T12:49:21;2.58;;;2.05;;
6531;SDS011;3299;42.004;24.868;2022-09-29T12:51:55;6.50;;;2.60;;
6531;SDS011;3299;42.004;24.868;2022-09-29T12:54:35;3.42;;;2.53;;
6531;SDS011;3299;42.004;24.868;2022-09-29T13:02:18;2.83;;;2.38;;
6531;SDS011;3299;42.004;24.868;2022-09-29T13:24:54;3.22;;;1.63;;
6531;SDS011;3299;42.004;24.868;2022-09-29T13:27:29;2.03;;;1.83;;
6531;SDS011;3299;42.004;24.868;2022-09-29T13:30:07;2.42;;;1.63;;
6531;SDS011;3299;42.004;24.868;2022-09-29T13:32:40;2.22;;;1.90;;
6531;SDS011;3299;42.004;24.868;2022-09-29T13:35:15;3.60;;;1.73;;
6531;SDS011;3299;42.004;24.868;2022-09-29T13:37:48;3.47;;;1.90;;
6531;SDS011;3299;42.004;24.868;2022-09-29T13:40:21;4.38;;;1.83;;
6531;SDS011;3299;42.004;24.868;2022-09-29T13:42:49;2.40;;;1.90;;
6531;SDS011;3299;42.004;24.868;2022-09-29T13:47:48;4.43;;;1.88;;
6531;SDS011;3299;42.004;24.868;2022-09-29T14:00:59;2.80;;;1.70;;
6531;SDS011;3299;42.004;24.868;2022-09-29T14:03:47;1.98;;;1.77;;
6531;SDS011;3299;42.004;24.868;2022-09-29T14:06:18;2.30;;;2.10;;
6531;SDS011;3299;42.004;24.868;2022-09-29T14:16:56;3.35;;;1.88;;
6531;SDS011;3299;42.004;24.868;2022-09-29T14:27:46;1.98;;;1.80;;
6531;SDS011;3299;42.004;24.868;2022-09-29T14:33:15;4.05;;;2.53;;
6531;SDS011;3299;42.004;24.868;2022-09-29T14:38:19;3.38;;;2.42;;
6531;SDS011;3299;42.004;24.868;2022-09-29T14:41:47;3.33;;;2.53;;
6531;SDS011;3299;42.004;24.868;2022-09-29T14:43:47;3.00;;;2.20;;
6531;SDS011;3299;42.004;24.868;2022-09-29T14:54:50;2.90;;;2.10;;
6531;SDS011;3299;42.004;24.868;2022-09-29T14:57:25;2.45;;;1.90;;
6531;SDS011;3299;42.004;24.868;2022-09-29T15:02:24;2.55;;;1.80;;
6531;SDS011;3299;42.004;24.868;2022-09-29T15:04:53;3.40;;;1.70;;
6531;SDS011;3299;42.004;24.868;2022-09-29T15:07:20;2.40;;;2.20;;
6531;SDS011;3299;42.004;24.868;2022-09-29T15:09:48;4.90;;;2.40;;
6531;SDS011;3299;42.004;24.868;2022-09-29T15:12:20;4.57;;;2.60;;
6531;SDS011;3299;42.004;24.868;2022-09-29T15:14:50;3.58;;;2.10;;
6531;SDS011;3299;42.004;24.868;2022-09-29T15:20:25;3.47;;;2.15;;
6531;SDS011;3299;42.004;24.868;2022-09-29T15:23:16;3.60;;;2.63;;
6531;SDS011;3299;42.004;24.868;2022-09-29T15:25:53;2.40;;;2.00;;
6531;SDS011;3299;42.004;24.868;2022-09-29T15:30:50;4.00;;;2.45;;
6531;SDS011;3299;42.004;24.868;2022-09-29T15:33:23;2.67;;;2.20;;
6531;SDS011;3299;42.004;24.868;2022-09-29T15:35:58;6.32;;;2.95;;
6531;SDS011;3299;42.004;24.868;2022-09-29T15:38:28;4.80;;;4.05;;
6531;SDS011;3299;42.004;24.868;2022-09-29T15:41:02;7.10;;;5.05;;
6531;SDS011;3299;42.004;24.868;2022-09-29T15:43:41;3.08;;;2.85;;
6531;SDS011;3299;42.004;24.868;2022-09-29T15:46:13;2.30;;;2.10;;
6531;SDS011;3299;42.004;24.868;2022-09-29T15:49:09;2.63;;;2.20;;
6531;SDS011;3299;42.004;24.868;2022-09-29T15:51:41;5.65;;;2.40;;
6531;SDS011;3299;42.004;24.868;2022-09-29T15:54:10;3.50;;;2.35;;
6531;SDS011;3299;42.004;24.868;2022-09-29T15:56:37;2.60;;;2.00;;
6531;SDS011;3299;42.004;24.868;2022-09-29T16:02:33;6.07;;;2.13;;
6531;SDS011;3299;42.004;24.868;2022-09-29T16:05:04;3.28;;;2.53;;
6531;SDS011;3299;42.004;24.868;2022-09-29T16:07:37;2.50;;;2.10;;
6531;SDS011;3299;42.004;24.868;2022-09-29T16:12:39;3.70;;;2.47;;
6531;SDS011;3299;42.004;24.868;2022-09-29T16:15:15;3.15;;;2.28;;
6531;SDS011;3299;42.004;24.868;2022-09-29T16:17:46;2.55;;;2.08;;
6531;SDS011;3299;42.004;24.868;2022-09-29T16:20:13;3.85;;;2.55;;
6531;SDS011;3299;42.004;24.868;2022-09-29T16:22:47;2.30;;;2.10;;
6531;SDS011;3299;42.004;24.868;2022-09-29T16:25:22;2.40;;;2.30;;
6531;SDS011;3299;42.004;24.868;2022-09-29T16:27:58;1.92;;;1.83;;
6531;SDS011;3299;42.004;24.868;2022-09-29T16:30:26;2.65;;;2.25;;
6531;SDS011;3299;42.004;24.868;2022-09-29T16:32:52;2.80;;;2.53;;
6531;SDS011;3299;42.004;24.868;2022-09-29T16:35:37;3.42;;;2.53;;
6531;SDS011;3299;42.004;24.868;2022-09-29T16:38:14;2.25;;;2.15;;
6531;SDS011;3299;42.004;24.868;2022-09-29T16:40:48;2.67;;;2.47;;
6531;SDS011;3299;42.004;24.868;2022-09-29T16:45:53;2.47;;;2.30;;
6531;SDS011;3299;42.004;24.868;2022-09-29T16:48:21;5.57;;;2.20;;
6531;SDS011;3299;42.004;24.868;2022-09-29T16:50:48;5.43;;;2.70;;
6531;SDS011;3299;42.004;24.868;2022-09-29T16:55:57;4.28;;;2.50;;
6531;SDS011;3299;42.004;24.868;2022-09-29T16:58:34;2.75;;;2.55;;
6531;SDS011;3299;42.004;24.868;2022-09-29T17:01:00;3.05;;;2.85;;
6531;SDS011;3299;42.004;24.868;2022-09-29T17:03:28;2.30;;;2.20;;
6531;SDS011;3299;42.004;24.868;2022-09-29T17:05:54;2.70;;;2.50;;
6531;SDS011;3299;42.004;24.868;2022-09-29T17:08:25;3.13;;;2.90;;
6531;SDS011;3299;42.004;24.868;2022-09-29T17:10:53;3.05;;;2.75;;
6531;SDS011;3299;42.004;24.868;2022-09-29T17:13:21;3.15;;;2.85;;
6531;SDS011;3299;42.004;24.868;2022-09-29T17:15:48;2.88;;;2.58;;
6531;SDS011;3299;42.004;24.868;2022-09-29T17:18:15;3.97;;;2.80;;
6531;SDS011;3299;42.004;24.868;2022-09-29T17:20:42;3.47;;;2.55;;
6531;SDS011;3299;42.004;24.868;2022-09-29T17:23:07;2.55;;;2.35;;
6531;SDS011;3299;42.004;24.868;2022-09-29T17:25:34;3.80;;;3.13;;
6531;SDS011;3299;42.004;24.868;2022-09-29T17:28:01;4.95;;;3.10;;
6531;SDS011;3299;42.004;24.868;2022-09-29T17:30:36;3.58;;;2.78;;
6531;SDS011;3299;42.004;24.868;2022-09-29T17:33:02;3.03;;;2.75;;
6531;SDS011;3299;42.004;24.868;2022-09-29T17:35:32;4.43;;;2.72;;
6531;SDS011;3299;42.004;24.868;2022-09-29T17:38:00;3.17;;;2.97;;
6531;SDS011;3299;42.004;24.868;2022-09-29T17:40:36;3.25;;;2.58;;
6531;SDS011;3299;42.004;24.868;2022-09-29T17:43:07;3.13;;;2.85;;
6531;SDS011;3299;42.004;24.868;2022-09-29T17:45:32;3.08;;;2.85;;
6531;SDS011;3299;42.004;24.868;2022-09-29T17:47:59;5.43;;;3.03;;
6531;SDS011;3299;42.004;24.868;2022-09-29T17:50:35;4.75;;;2.85;;
6531;SDS011;3299;42.004;24.868;2022-09-29T17:53:08;3.30;;;2.67;;
6531;SDS011;3299;42.004;24.868;2022-09-29T17:55:39;5.75;;;2.92;;
6531;SDS011;3299;42.004;24.868;2022-09-29T17:58:05;4.68;;;3.40;;
6531;SDS011;3299;42.004;24.868;2022-09-29T18:00:32;3.05;;;2.85;;
6531;SDS011;3299;42.004;24.868;2022-09-29T18:03:05;3.00;;;2.80;;
6531;SDS011;3299;42.004;24.868;2022-09-29T18:05:33;4.70;;;2.80;;
6531;SDS011;3299;42.004;24.868;2022-09-29T18:08:01;2.92;;;2.70;;
6531;SDS011;3299;42.004;24.868;2022-09-29T18:13:02;3.50;;;2.53;;
6531;SDS011;3299;42.004;24.868;2022-09-29T18:15:28;2.88;;;2.67;;
6531;SDS011;3299;42.004;24.868;2022-09-29T18:17:54;3.13;;;2.83;;
6531;SDS011;3299;42.004;24.868;2022-09-29T18:20:22;3.40;;;3.08;;
6531;SDS011;3299;42.004;24.868;2022-09-29T18:22:53;4.68;;;2.90;;
6531;SDS011;3299;42.004;24.868;2022-09-29T18:25:22;4.15;;;3.67;;
6531;SDS011;3299;42.004;24.868;2022-09-29T18:27:47;4.35;;;3.17;;
6531;SDS011;3299;42.004;24.868;2022-09-29T18:30:21;3.95;;;3.35;;
6531;SDS011;3299;42.004;24.868;2022-09-29T18:32:59;3.63;;;3.00;;
6531;SDS011;3299;42.004;24.868;2022-09-29T18:35:28;4.80;;;3.22;;
6531;SDS011;3299;42.004;24.868;2022-09-29T18:37:57;3.83;;;3.00;;
6531;SDS011;3299;42.004;24.868;2022-09-29T18:40:24;6.07;;;3.80;;
6531;SDS011;3299;42.004;24.868;2022-09-29T18:42:51;2.90;;;2.70;;
6531;SDS011;3299;42.004;24.868;2022-09-29T18:45:21;3.20;;;2.92;;
6531;SDS011;3299;42.004;24.868;2022-09-29T18:47:48;3.88;;;3.10;;
6531;SDS011;3299;42.004;24.868;2022-09-29T18:50:19;3.05;;;2.85;;
6531;SDS011;3299;42.004;24.868;2022-09-29T18:52:47;4.10;;;2.92;;